createdAt,value
2023-09-13T00:01:50.936Z,11.49
2023-09-13T00:04:18.876Z,11.48
2023-09-13T00:06:47.097Z,11.47
2023-09-13T00:09:15.187Z,11.46
2023-09-13T00:11:43.125Z,11.43
2023-09-13T00:14:11.117Z,11.40
2023-09-13T00:16:39.198Z,11.37
2023-09-13T00:19:08.218Z,11.34
2023-09-13T00:21:41.761Z,11.31
2023-09-13T00:24:12.786Z,11.26
2023-09-13T00:26:40.792Z,11.24
2023-09-13T00:29:08.837Z,11.22
2023-09-13T00:31:37.034Z,11.19
2023-09-13T00:34:05.224Z,11.19
2023-09-13T00:36:33.218Z,11.21
2023-09-13T00:39:00.947Z,11.24
2023-09-13T00:41:28.708Z,11.27
2023-09-13T00:43:56.946Z,11.30
2023-09-13T00:46:24.989Z,11.31
2023-09-13T00:48:53.444Z,11.31
2023-09-13T00:51:21.708Z,11.31
2023-09-13T00:53:49.557Z,11.29
2023-09-13T00:56:18.030Z,11.28
2023-09-13T00:58:49.066Z,11.26
2023-09-13T01:01:17.441Z,11.23
2023-09-13T01:03:45.702Z,11.19
2023-09-13T01:06:14.219Z,11.16
2023-09-13T01:08:43.191Z,11.13
2023-09-13T01:11:12.431Z,11.13
2023-09-13T01:13:40.459Z,11.12
2023-09-13T01:16:25.186Z,11.10
2023-09-13T01:19:33.895Z,11.09
2023-09-13T01:22:05.057Z,11.10
2023-09-13T01:24:42.113Z,11.12
2023-09-13T01:27:28.307Z,11.15
2023-09-13T01:29:56.180Z,11.18
2023-09-13T01:32:24.046Z,11.19
2023-09-13T01:34:51.822Z,11.19
2023-09-13T01:37:20.008Z,11.21
2023-09-13T01:39:47.918Z,11.25
2023-09-13T01:42:16.101Z,11.29
2023-09-13T01:44:46.079Z,11.31
2023-09-13T01:47:14.411Z,11.29
2023-09-13T01:49:42.402Z,11.26
2023-09-13T01:52:10.284Z,11.26
2023-09-13T01:54:38.748Z,11.25
2023-09-13T01:57:06.473Z,11.23
2023-09-13T01:59:36.252Z,11.20
2023-09-13T02:02:05.658Z,11.16
2023-09-13T02:04:34.807Z,11.14
2023-09-13T02:07:04.175Z,11.10
2023-09-13T02:09:32.324Z,11.06
2023-09-13T02:12:00.350Z,11.05
2023-09-13T02:14:28.209Z,11.05
2023-09-13T02:17:01.063Z,11.02
2023-09-13T02:19:29.656Z,11.00
2023-09-13T02:21:57.564Z,10.98
2023-09-13T02:24:26.441Z,10.98
2023-09-13T02:26:57.912Z,11.01
2023-09-13T02:29:26.227Z,11.02
2023-09-13T02:31:54.410Z,11.03
2023-09-13T02:34:22.832Z,11.03
2023-09-13T02:36:50.929Z,11.02
2023-09-13T02:39:35.992Z,11.01
2023-09-13T02:42:04.952Z,11.00
2023-09-13T02:44:33.278Z,10.98
2023-09-13T02:47:03.413Z,10.97
2023-09-13T02:49:33.636Z,10.98
2023-09-13T02:52:02.330Z,10.99
2023-09-13T02:54:30.451Z,10.99
2023-09-13T02:56:58.404Z,10.97
2023-09-13T02:59:27.043Z,10.97
2023-09-13T03:01:55.337Z,10.97
2023-09-13T03:04:23.619Z,10.97
2023-09-13T03:06:51.696Z,10.96
2023-09-13T03:09:19.584Z,10.94
2023-09-13T03:11:47.778Z,10.91
2023-09-13T03:14:15.990Z,10.90
2023-09-13T03:16:44.091Z,10.88
2023-09-13T03:19:12.166Z,10.88
2023-09-13T03:21:40.243Z,10.87
2023-09-13T03:24:10.993Z,10.84
2023-09-13T03:26:40.571Z,10.83
2023-09-13T03:29:08.682Z,10.84
2023-09-13T03:31:38.385Z,10.84
2023-09-13T03:34:10.304Z,10.84
2023-09-13T03:36:38.828Z,10.84
2023-09-13T03:39:06.770Z,10.85
2023-09-13T03:41:35.067Z,10.87
2023-09-13T03:44:04.817Z,10.89
2023-09-13T03:46:33.224Z,10.92
2023-09-13T03:49:01.850Z,10.95
2023-09-13T03:51:29.848Z,10.97
2023-09-13T03:53:59.681Z,10.99
2023-09-13T03:56:28.308Z,11.00
2023-09-13T03:58:56.814Z,11.00
2023-09-13T04:01:25.688Z,11.01
2023-09-13T04:03:54.028Z,11.03
2023-09-13T04:06:22.117Z,11.07
2023-09-13T04:08:50.047Z,11.11
2023-09-13T04:11:17.948Z,11.13
2023-09-13T04:13:46.121Z,11.16
2023-09-13T04:16:16.151Z,11.20
2023-09-13T04:18:44.336Z,11.26
2023-09-13T04:21:12.138Z,11.35
2023-09-13T04:23:40.316Z,11.44
2023-09-13T04:26:08.158Z,11.56
2023-09-13T04:28:36.987Z,11.68
2023-09-13T04:31:05.246Z,11.86
2023-09-13T04:33:54.100Z,12.06
2023-09-13T04:36:25.668Z,12.28
2023-09-13T04:38:53.922Z,12.44
2023-09-13T04:41:21.924Z,12.57
2023-09-13T04:43:50.361Z,12.68
2023-09-13T04:46:20.255Z,12.82
2023-09-13T04:48:48.428Z,12.95
2023-09-13T04:51:16.786Z,13.07
2023-09-13T04:53:45.022Z,13.21
2023-09-13T04:56:13.311Z,13.33
2023-09-13T04:58:44.702Z,13.46
2023-09-13T05:01:12.946Z,13.55
2023-09-13T05:03:41.520Z,13.61
2023-09-13T05:06:09.937Z,13.68
2023-09-13T05:08:38.278Z,13.78
2023-09-13T05:11:06.330Z,13.88
2023-09-13T05:13:34.398Z,14.02
2023-09-13T05:16:02.600Z,14.17
2023-09-13T05:18:30.735Z,14.31
2023-09-13T05:20:58.948Z,14.44
2023-09-13T05:23:27.098Z,14.59
2023-09-13T05:25:57.383Z,14.72
2023-09-13T05:28:25.989Z,14.88
2023-09-13T05:30:55.512Z,15.05
2023-09-13T05:33:26.585Z,15.19
2023-09-13T05:35:54.539Z,15.24
2023-09-13T05:38:22.868Z,15.28
2023-09-13T05:40:50.873Z,15.39
2023-09-13T05:43:18.908Z,15.53
2023-09-13T05:45:46.751Z,15.67
2023-09-13T05:48:14.715Z,15.77
2023-09-13T05:50:42.593Z,15.88
2023-09-13T05:53:10.327Z,15.99
2023-09-13T05:55:38.697Z,16.11
2023-09-13T05:58:06.507Z,16.23
2023-09-13T06:00:34.980Z,16.39
2023-09-13T06:03:03.764Z,16.54
2023-09-13T06:05:31.872Z,16.67
2023-09-13T06:07:59.862Z,16.83
2023-09-13T06:10:27.813Z,16.95
2023-09-13T06:12:57.288Z,16.96
2023-09-13T06:15:25.314Z,16.91
2023-09-13T06:17:53.227Z,16.91
2023-09-13T06:20:21.200Z,16.98
2023-09-13T06:22:49.088Z,17.12
2023-09-13T06:25:18.748Z,17.33
2023-09-13T06:27:46.648Z,17.55
2023-09-13T06:30:14.651Z,17.65
2023-09-13T06:32:43.078Z,17.75
2023-09-13T06:35:15.645Z,17.82
2023-09-13T06:37:46.460Z,17.94
2023-09-13T06:40:15.802Z,18.10
2023-09-13T06:43:00.358Z,18.22
2023-09-13T06:45:31.141Z,18.35
2023-09-13T06:48:00.338Z,18.47
2023-09-13T06:51:01.898Z,18.61
2023-09-13T06:55:51.518Z,18.95
2023-09-13T06:58:22.190Z,19.07
2023-09-13T07:01:13.860Z,19.17
2023-09-13T07:03:40.547Z,19.22
2023-09-13T07:06:08.980Z,19.33
2023-09-13T07:08:37.050Z,19.42
2023-09-13T07:11:04.890Z,19.56
2023-09-13T07:13:32.775Z,19.65
2023-09-13T07:16:00.902Z,19.75
2023-09-13T07:18:28.894Z,19.82
2023-09-13T07:20:58.242Z,19.96
2023-09-13T07:23:26.936Z,20.15
2023-09-13T07:25:54.841Z,20.30
2023-09-13T07:28:22.994Z,20.43
2023-09-13T07:30:51.004Z,20.61
2023-09-13T07:33:19.193Z,20.72
2023-09-13T07:35:46.990Z,20.75
2023-09-13T07:38:15.817Z,20.83
2023-09-13T07:40:43.878Z,20.95
2023-09-13T07:43:11.696Z,21.15
2023-09-13T07:45:39.800Z,21.32
2023-09-13T07:48:07.861Z,21.36
2023-09-13T07:50:39.862Z,21.27
2023-09-13T07:53:08.633Z,21.24
2023-09-13T07:55:36.568Z,21.30
2023-09-13T07:58:05.908Z,21.37
2023-09-13T08:00:34.231Z,21.48
2023-09-13T08:03:03.090Z,21.57
2023-09-13T08:05:31.182Z,21.70
2023-09-13T08:07:59.270Z,21.87
2023-09-13T08:10:27.271Z,21.96
2023-09-13T08:12:55.427Z,22.04
2023-09-13T08:15:30.843Z,22.20
2023-09-13T08:18:06.585Z,22.34
2023-09-13T08:20:34.472Z,22.44
2023-09-13T08:23:02.352Z,22.49
2023-09-13T08:25:30.281Z,22.51
2023-09-13T08:27:58.121Z,22.60
2023-09-13T08:30:26.255Z,22.73
2023-09-13T08:32:54.315Z,22.88
2023-09-13T08:35:22.323Z,22.99
2023-09-13T08:37:53.557Z,23.08
2023-09-13T08:40:21.989Z,23.20
2023-09-13T08:42:50.032Z,23.31
2023-09-13T08:45:18.093Z,23.42
2023-09-13T08:47:58.205Z,23.34
2023-09-13T08:50:30.209Z,23.30
2023-09-13T08:53:00.064Z,23.36
2023-09-13T08:55:28.683Z,23.46
2023-09-13T08:57:56.745Z,23.66
2023-09-13T09:00:29.742Z,23.85
2023-09-13T09:02:59.694Z,23.94
2023-09-13T09:05:28.654Z,23.98
2023-09-13T09:07:58.307Z,24.06
2023-09-13T09:10:26.198Z,24.15
2023-09-13T09:12:57.104Z,24.27
2023-09-13T09:15:26.394Z,24.33
2023-09-13T09:17:55.048Z,24.39
2023-09-13T09:20:25.596Z,24.47
2023-09-13T09:22:53.462Z,24.53
2023-09-13T09:25:21.419Z,24.59
2023-09-13T09:27:49.303Z,24.65
2023-09-13T09:30:17.599Z,24.78
2023-09-13T09:32:46.081Z,24.96
2023-09-13T09:35:16.816Z,25.14
2023-09-13T09:37:45.893Z,25.23
2023-09-13T09:40:16.218Z,25.21
2023-09-13T09:42:44.351Z,25.21
2023-09-13T09:45:12.394Z,25.16
2023-09-13T09:47:42.705Z,25.01
2023-09-13T09:50:14.858Z,24.93
2023-09-13T09:52:43.757Z,24.91
2023-09-13T09:55:20.138Z,24.86
2023-09-13T09:57:48.703Z,24.71
2023-09-13T10:00:17.094Z,24.51
2023-09-13T10:02:46.479Z,24.41
2023-09-13T10:05:19.889Z,24.38
2023-09-13T10:07:52.510Z,24.44
2023-09-13T10:10:36.321Z,24.62
2023-09-13T10:13:07.472Z,24.90
2023-09-13T10:15:35.400Z,25.18
2023-09-13T10:18:04.688Z,25.41
2023-09-13T10:20:32.963Z,25.45
2023-09-13T10:23:02.067Z,25.33
2023-09-13T10:25:31.969Z,25.19
2023-09-13T10:28:01.016Z,25.20
2023-09-13T10:30:29.525Z,25.34
2023-09-13T10:33:00.693Z,25.46
2023-09-13T10:35:32.092Z,25.57
2023-09-13T10:38:06.197Z,25.73
2023-09-13T10:40:36.396Z,25.92
2023-09-13T10:43:05.737Z,26.13
2023-09-13T10:45:33.570Z,26.32
2023-09-13T10:48:01.832Z,26.44
2023-09-13T10:50:29.726Z,26.56
2023-09-13T10:52:57.907Z,26.70
2023-09-13T10:55:26.325Z,26.78
2023-09-13T10:57:54.491Z,26.81
2023-09-13T11:00:23.002Z,26.78
2023-09-13T11:02:52.769Z,26.70
2023-09-13T11:05:21.113Z,26.66
2023-09-13T11:07:49.992Z,26.64
2023-09-13T11:10:19.083Z,26.63
2023-09-13T11:12:50.855Z,26.64
2023-09-13T11:15:27.196Z,26.71
2023-09-13T11:17:57.798Z,26.80
2023-09-13T11:20:40.127Z,26.90
2023-09-13T11:28:40.566Z,27.17
2023-09-13T11:31:10.005Z,27.19
2023-09-13T11:33:51.714Z,27.23
2023-09-13T11:36:19.910Z,27.27
2023-09-13T11:38:51.865Z,27.32
2023-09-13T11:41:19.857Z,27.29
2023-09-13T11:44:03.297Z,27.26
2023-09-13T11:46:32.789Z,27.23
2023-09-13T11:49:03.721Z,27.24
2023-09-13T11:51:51.675Z,27.28
2023-09-13T11:54:23.549Z,27.34
2023-09-13T11:57:07.880Z,27.41
2023-09-13T11:59:43.093Z,27.55
2023-09-13T12:02:13.644Z,27.67
2023-09-13T12:07:17.102Z,27.85
2023-09-13T12:10:00.227Z,27.90
2023-09-13T12:12:41.366Z,27.93
2023-09-13T12:18:05.596Z,27.89
2023-09-13T12:20:33.823Z,27.83
2023-09-13T12:23:01.641Z,27.82
2023-09-13T12:25:34.188Z,27.84
2023-09-13T12:28:02.705Z,27.82
2023-09-13T12:30:30.778Z,27.74
2023-09-13T12:32:58.827Z,27.69
2023-09-13T12:35:26.995Z,27.67
2023-09-13T12:38:00.091Z,27.66
2023-09-13T12:40:28.968Z,27.73
2023-09-13T12:42:57.801Z,27.61
2023-09-13T12:45:30.849Z,27.53
2023-09-13T12:47:58.849Z,27.70
2023-09-13T12:50:33.857Z,27.93
2023-09-13T12:53:04.320Z,28.15
2023-09-13T12:55:32.296Z,28.31
2023-09-13T12:58:05.854Z,28.25
2023-09-13T13:00:55.442Z,28.04
2023-09-13T13:03:30.242Z,27.97
2023-09-13T13:06:03.820Z,28.02
2023-09-13T13:08:35.852Z,28.11
2023-09-13T13:11:05.113Z,28.27
2023-09-13T13:13:37.593Z,28.42
2023-09-13T13:16:16.134Z,28.54
2023-09-13T13:18:54.862Z,28.57
2023-09-13T13:21:38.375Z,28.71
2023-09-13T13:24:07.671Z,28.83
2023-09-13T13:26:35.503Z,28.66
2023-09-13T13:29:07.882Z,28.46
2023-09-13T13:31:36.551Z,28.51
2023-09-13T13:34:07.009Z,28.77
2023-09-13T13:36:35.083Z,29.01
2023-09-13T13:39:07.155Z,28.93
2023-09-13T13:41:35.221Z,28.67
2023-09-13T13:44:03.225Z,28.35
2023-09-13T13:46:31.161Z,28.03
2023-09-13T13:48:59.396Z,27.79
2023-09-13T13:51:27.282Z,27.65
2023-09-13T13:53:57.077Z,27.66
2023-09-13T13:56:26.331Z,27.75
2023-09-13T13:58:55.585Z,27.85
2023-09-13T14:01:23.459Z,27.88
2023-09-13T14:03:51.932Z,27.92
2023-09-13T14:06:19.953Z,28.11
2023-09-13T14:08:47.866Z,28.32
2023-09-13T14:11:15.867Z,28.40
2023-09-13T14:13:44.072Z,28.41
2023-09-13T14:16:12.461Z,28.37
2023-09-13T14:18:40.574Z,28.34
2023-09-13T14:21:08.802Z,28.44
2023-09-13T14:23:36.877Z,28.54
2023-09-13T14:26:04.928Z,28.61
2023-09-13T14:28:34.214Z,28.69
2023-09-13T14:31:02.263Z,28.73
2023-09-13T14:33:35.579Z,28.77
2023-09-13T14:36:04.373Z,28.79
2023-09-13T14:38:32.199Z,28.79
2023-09-13T14:41:00.033Z,28.75
2023-09-13T14:43:27.824Z,28.66
2023-09-13T14:45:55.802Z,28.58
2023-09-13T14:48:24.078Z,28.52
2023-09-13T14:50:52.060Z,28.46
2023-09-13T14:53:21.392Z,28.38
2023-09-13T14:55:56.780Z,28.29
2023-09-13T14:58:25.167Z,28.18
2023-09-13T15:00:53.161Z,28.05
2023-09-13T15:03:21.271Z,27.93
2023-09-13T15:05:49.543Z,27.77
2023-09-13T15:08:17.558Z,27.57
2023-09-13T15:10:46.056Z,27.40
2023-09-13T15:13:14.072Z,27.19
2023-09-13T15:15:46.573Z,27.00
2023-09-13T15:18:14.569Z,26.75
2023-09-13T15:20:43.654Z,26.39
2023-09-13T15:23:37.952Z,25.99
2023-09-13T15:26:06.527Z,25.62
2023-09-13T15:28:34.638Z,25.35
2023-09-13T15:31:02.685Z,25.09
2023-09-13T15:33:30.837Z,24.81
2023-09-13T15:35:58.683Z,24.43
2023-09-13T15:38:26.716Z,24.01
2023-09-13T15:40:54.624Z,23.67
2023-09-13T15:43:22.775Z,23.37
2023-09-13T15:45:51.519Z,23.07
2023-09-13T15:48:19.496Z,22.78
2023-09-13T15:50:49.799Z,22.51
2023-09-13T15:53:18.070Z,22.26
2023-09-13T15:55:46.050Z,21.95
2023-09-13T15:58:14.027Z,21.64
2023-09-13T16:00:42.595Z,21.39
2023-09-13T16:03:10.640Z,21.18
2023-09-13T16:05:38.493Z,20.94
2023-09-13T16:08:06.306Z,20.73
2023-09-13T16:10:34.212Z,20.55
2023-09-13T16:13:02.122Z,20.39
2023-09-13T16:15:30.001Z,20.25
2023-09-13T16:17:58.010Z,20.12
2023-09-13T16:20:25.839Z,20.00
2023-09-13T16:22:53.919Z,19.86
2023-09-13T16:25:21.921Z,19.73
2023-09-13T16:27:49.842Z,19.60
2023-09-13T16:30:18.166Z,19.46
2023-09-13T16:32:47.025Z,19.31
2023-09-13T16:35:15.217Z,19.15
2023-09-13T16:37:43.138Z,19.02
2023-09-13T16:40:11.725Z,18.91
2023-09-13T16:42:41.981Z,18.84
2023-09-13T16:45:11.011Z,18.75
2023-09-13T16:47:39.428Z,18.67
2023-09-13T16:50:08.216Z,18.60
2023-09-13T16:52:36.436Z,18.49
2023-09-13T16:55:04.697Z,18.39
2023-09-13T16:57:33.678Z,18.28
2023-09-13T17:00:01.908Z,18.20
2023-09-13T17:02:29.993Z,18.11
2023-09-13T17:04:58.110Z,18.02
2023-09-13T17:07:26.068Z,17.94
2023-09-13T17:09:53.971Z,17.85
2023-09-13T17:12:22.000Z,17.76
2023-09-13T17:14:49.919Z,17.67
2023-09-13T17:17:22.852Z,17.61
2023-09-13T17:19:50.988Z,17.54
2023-09-13T17:22:19.022Z,17.48
2023-09-13T17:24:47.416Z,17.40
2023-09-13T17:27:16.398Z,17.31
2023-09-13T17:29:45.223Z,17.25
2023-09-13T17:32:13.198Z,17.22
2023-09-13T17:34:41.796Z,17.20
2023-09-13T17:37:09.844Z,17.17
2023-09-13T17:39:38.226Z,17.13
2023-09-13T17:42:07.454Z,17.10
2023-09-13T17:44:35.608Z,17.07
2023-09-13T17:47:03.771Z,17.02
2023-09-13T17:49:31.792Z,16.95
2023-09-13T17:52:00.084Z,16.88
2023-09-13T17:54:28.063Z,16.82
2023-09-13T17:56:56.041Z,16.77
2023-09-13T17:59:25.055Z,16.72
2023-09-13T18:01:53.120Z,16.70
2023-09-13T18:04:21.493Z,16.71
2023-09-13T18:06:49.771Z,16.71
2023-09-13T18:09:19.399Z,16.72
2023-09-13T18:11:48.081Z,16.73
2023-09-13T18:14:16.053Z,16.74
2023-09-13T18:16:44.046Z,16.73
2023-09-13T18:19:14.180Z,16.69
2023-09-13T18:21:42.440Z,16.65
2023-09-13T18:24:10.671Z,16.63
2023-09-13T18:26:38.563Z,16.61
2023-09-13T18:29:06.484Z,16.61
2023-09-13T18:31:34.544Z,16.61
2023-09-13T18:34:04.654Z,16.62
2023-09-13T18:36:33.273Z,16.64
2023-09-13T18:39:01.074Z,16.68
2023-09-13T18:41:28.868Z,16.72
2023-09-13T18:44:02.255Z,16.75
2023-09-13T18:46:30.174Z,16.76
2023-09-13T18:48:58.634Z,16.76
2023-09-13T18:51:26.972Z,16.77
2023-09-13T18:53:56.184Z,16.78
2023-09-13T18:56:23.996Z,16.76
2023-09-13T18:58:52.141Z,16.72
2023-09-13T19:01:20.437Z,16.67
2023-09-13T19:03:48.636Z,16.63
2023-09-13T19:06:17.442Z,16.57
2023-09-13T19:08:51.011Z,16.52
2023-09-13T19:11:57.525Z,16.47
2023-09-13T19:14:25.880Z,16.43
2023-09-13T19:16:53.984Z,16.40
2023-09-13T19:19:22.087Z,16.37
2023-09-13T19:21:49.963Z,16.34
2023-09-13T19:24:18.117Z,16.32
2023-09-13T19:26:45.919Z,16.32
2023-09-13T19:29:13.965Z,16.31
2023-09-13T19:31:42.062Z,16.30
2023-09-13T19:34:10.214Z,16.29
2023-09-13T19:36:38.352Z,16.28
2023-09-13T19:39:07.369Z,16.30
2023-09-13T19:41:35.301Z,16.32
2023-09-13T19:44:03.489Z,16.35
2023-09-13T19:46:31.635Z,16.38
2023-09-13T19:48:59.782Z,16.42
2023-09-13T19:51:28.536Z,16.47
2023-09-13T19:53:56.699Z,16.49
2023-09-13T19:56:24.817Z,16.50
2023-09-13T19:58:53.262Z,16.50
2023-09-13T20:01:21.756Z,16.51
2023-09-13T20:03:51.618Z,16.51
2023-09-13T20:06:21.865Z,16.49
2023-09-13T20:08:50.466Z,16.47
2023-09-13T20:11:18.680Z,16.43
2023-09-13T20:13:46.672Z,16.40
2023-09-13T20:16:14.458Z,16.37
2023-09-13T20:18:44.425Z,16.36
2023-09-13T20:21:13.040Z,16.34
2023-09-13T20:23:41.582Z,16.34
2023-09-13T20:26:09.764Z,16.34
2023-09-13T20:28:38.070Z,16.34
2023-09-13T20:31:06.247Z,16.35
2023-09-13T20:33:34.325Z,16.35
2023-09-13T20:36:02.569Z,16.34
2023-09-13T20:38:30.545Z,16.33
2023-09-13T20:40:58.350Z,16.34
2023-09-13T20:43:26.357Z,16.35
2023-09-13T20:45:54.373Z,16.35
2023-09-13T20:48:22.183Z,16.37
2023-09-13T20:50:52.278Z,16.38
2023-09-13T20:53:22.209Z,16.37
2023-09-13T20:55:52.847Z,16.36
2023-09-13T20:58:20.814Z,16.34
2023-09-13T21:00:48.780Z,16.32
2023-09-13T21:03:16.835Z,16.30
2023-09-13T21:05:44.803Z,16.29
2023-09-13T21:08:13.415Z,16.29
2023-09-13T21:10:41.357Z,16.28
2023-09-13T21:13:09.364Z,16.28
2023-09-13T21:15:38.639Z,16.27
2023-09-13T21:18:06.855Z,16.27
2023-09-13T21:20:34.996Z,16.26
2023-09-13T21:23:03.185Z,16.24
2023-09-13T21:25:31.200Z,16.24
2023-09-13T21:27:59.412Z,16.23
2023-09-13T21:30:27.199Z,16.23
2023-09-13T21:32:55.222Z,16.22
2023-09-13T21:35:23.466Z,16.21
2023-09-13T21:37:51.910Z,16.19
2023-09-13T21:40:19.818Z,16.18
2023-09-13T21:42:47.820Z,16.13
2023-09-13T21:45:16.599Z,16.06
2023-09-13T21:47:46.309Z,15.97
2023-09-13T21:50:14.310Z,15.88
2023-09-13T21:52:42.385Z,15.80
2023-09-13T21:55:10.296Z,15.72
2023-09-13T21:57:39.370Z,15.64
2023-09-13T22:00:16.840Z,15.54
2023-09-13T22:02:45.068Z,15.44
2023-09-13T22:05:17.089Z,15.35
2023-09-13T22:07:45.544Z,15.26
2023-09-13T22:10:13.479Z,15.18
2023-09-13T22:12:42.228Z,15.09
2023-09-13T22:15:11.064Z,14.99
2023-09-13T22:17:39.129Z,14.88
2023-09-13T22:20:07.706Z,14.76
2023-09-13T22:22:36.685Z,14.64
2023-09-13T22:25:05.208Z,14.54
2023-09-13T22:27:33.650Z,14.43
2023-09-13T22:30:02.222Z,14.34
2023-09-13T22:32:31.392Z,14.26
2023-09-13T22:34:59.391Z,14.19
2023-09-13T22:37:27.499Z,14.18
2023-09-13T22:39:55.416Z,14.18
2023-09-13T22:42:23.361Z,14.19
2023-09-13T22:44:52.380Z,14.21
2023-09-13T22:47:20.369Z,14.19
2023-09-13T22:49:48.543Z,14.18
2023-09-13T22:52:16.338Z,14.17
2023-09-13T22:54:44.229Z,14.18
2023-09-13T22:57:12.255Z,14.20
2023-09-13T22:59:40.041Z,14.22
2023-09-13T23:02:07.930Z,14.25
2023-09-13T23:04:35.808Z,14.27
2023-09-13T23:07:04.069Z,14.25
2023-09-13T23:09:32.044Z,14.26
2023-09-13T23:12:00.097Z,14.28
2023-09-13T23:14:27.877Z,14.30
2023-09-13T23:16:56.043Z,14.33
2023-09-13T23:19:23.955Z,14.36
2023-09-13T23:21:51.814Z,14.37
2023-09-13T23:24:22.381Z,14.38
2023-09-13T23:26:51.937Z,14.38
2023-09-13T23:29:19.989Z,14.35
2023-09-13T23:31:48.006Z,14.34
2023-09-13T23:34:15.955Z,14.35
2023-09-13T23:36:46.311Z,14.37
2023-09-13T23:39:14.089Z,14.37
2023-09-13T23:41:42.264Z,14.39
2023-09-13T23:44:13.259Z,14.42
2023-09-13T23:46:41.206Z,14.44
2023-09-13T23:49:09.153Z,14.47
2023-09-13T23:51:36.963Z,14.49
2023-09-13T23:54:05.060Z,14.54
2023-09-13T23:56:32.960Z,14.58
2023-09-13T23:59:00.763Z,14.62
